createdAt,value
2023-04-22T00:00:41.314Z,10.12
2023-04-22T00:03:14.584Z,10.12
2023-04-22T00:05:46.885Z,10.12
2023-04-22T00:08:19.709Z,10.13
2023-04-22T00:10:51.357Z,10.10
2023-04-22T00:13:24.219Z,10.09
2023-04-22T00:15:55.814Z,10.05
2023-04-22T00:18:27.534Z,10.03
2023-04-22T00:20:59.235Z,9.99
2023-04-22T00:23:31.682Z,9.99
2023-04-22T00:26:03.393Z,9.98
2023-04-22T00:28:35.419Z,9.98
2023-04-22T00:31:07.473Z,9.96
2023-04-22T00:33:39.229Z,9.95
2023-04-22T00:36:10.826Z,9.90
2023-04-22T00:38:43.245Z,9.85
2023-04-22T00:41:15.344Z,9.80
2023-04-22T00:43:47.104Z,9.76
2023-04-22T00:46:18.908Z,9.70
2023-04-22T00:48:50.671Z,9.66
2023-04-22T00:51:22.232Z,9.61
2023-04-22T00:53:53.965Z,9.60
2023-04-22T00:56:27.402Z,9.56
2023-04-22T00:58:59.015Z,9.55
2023-04-22T01:01:31.024Z,9.53
2023-04-22T01:04:02.989Z,9.52
2023-04-22T01:06:35.396Z,9.48
2023-04-22T01:09:07.073Z,9.44
2023-04-22T01:11:39.097Z,9.39
2023-04-22T01:14:10.920Z,9.34
2023-04-22T01:16:43.859Z,9.31
2023-04-22T01:19:15.611Z,9.30
2023-04-22T01:21:47.469Z,9.28
2023-04-22T01:24:19.007Z,9.27
2023-04-22T01:26:50.753Z,9.25
2023-04-22T01:29:22.501Z,9.25
2023-04-22T01:31:54.222Z,9.22
2023-04-22T01:34:25.900Z,9.22
2023-04-22T01:36:57.648Z,9.16
2023-04-22T01:39:29.959Z,9.14
2023-04-22T01:42:02.295Z,9.13
2023-04-22T01:44:33.872Z,9.13
2023-04-22T01:47:05.982Z,9.12
2023-04-22T01:49:39.041Z,9.10
2023-04-22T01:52:11.593Z,9.06
2023-04-22T01:54:43.158Z,9.05
2023-04-22T01:57:16.520Z,9.04
2023-04-22T01:59:49.091Z,9.02
2023-04-22T02:02:20.715Z,8.99
2023-04-22T02:04:52.458Z,8.97
2023-04-22T02:07:24.000Z,8.94
2023-04-22T02:09:55.525Z,8.91
2023-04-22T02:12:27.542Z,8.90
2023-04-22T02:17:43.875Z,8.84
2023-04-22T02:20:16.165Z,8.82
2023-04-22T02:22:50.791Z,8.81
2023-04-22T02:25:23.761Z,8.80
2023-04-22T02:27:55.269Z,8.77
2023-04-22T02:30:27.578Z,8.77
2023-04-22T02:32:59.330Z,8.75
2023-04-22T02:35:31.058Z,8.75
2023-04-22T02:38:02.614Z,8.71
2023-04-22T02:40:34.923Z,8.70
2023-04-22T02:43:06.634Z,8.67
2023-04-22T02:45:38.792Z,8.65
2023-04-22T02:48:10.634Z,8.65
2023-04-22T02:50:42.928Z,8.65
2023-04-22T02:53:14.673Z,8.65
2023-04-22T02:55:46.357Z,8.65
2023-04-22T02:58:18.386Z,8.64
2023-04-22T03:00:50.039Z,8.63
2023-04-22T03:03:22.832Z,8.61
2023-04-22T03:05:54.573Z,8.59
2023-04-22T03:08:27.406Z,8.59
2023-04-22T03:10:58.916Z,8.59
2023-04-22T03:13:30.465Z,8.61
2023-04-22T03:16:02.033Z,8.64
2023-04-22T03:18:35.826Z,8.69
2023-04-22T03:21:08.578Z,8.72
2023-04-22T03:23:40.361Z,8.74
2023-04-22T03:26:12.138Z,8.80
2023-04-22T03:28:44.583Z,8.86
2023-04-22T03:31:16.427Z,8.93
2023-04-22T03:33:48.957Z,8.99
2023-04-22T03:36:22.287Z,9.05
2023-04-22T03:38:54.047Z,9.12
2023-04-22T03:41:27.709Z,9.17
2023-04-22T03:44:01.640Z,9.23
2023-04-22T03:46:42.401Z,9.35
2023-04-22T03:49:18.929Z,9.44
2023-04-22T03:51:50.926Z,9.52
2023-04-22T03:54:24.425Z,9.60
2023-04-22T03:56:56.623Z,9.66
2023-04-22T03:59:28.657Z,9.64
2023-04-22T04:02:00.754Z,9.65
2023-04-22T04:04:35.061Z,9.71
2023-04-22T04:07:08.683Z,9.77
2023-04-22T04:09:40.752Z,9.84
2023-04-22T04:12:12.698Z,9.91
2023-04-22T04:14:46.230Z,9.96
2023-04-22T04:17:20.666Z,10.04
2023-04-22T04:19:55.930Z,10.13
2023-04-22T04:22:29.450Z,10.22
2023-04-22T04:25:02.714Z,10.29
2023-04-22T04:27:38.913Z,10.37
2023-04-22T04:30:11.934Z,10.46
2023-04-22T04:32:46.009Z,10.50
2023-04-22T04:35:18.476Z,10.57
2023-04-22T04:37:55.349Z,10.65
2023-04-22T04:40:28.578Z,10.71
2023-04-22T04:43:11.020Z,10.78
2023-04-22T04:45:48.775Z,10.82
2023-04-22T04:48:24.319Z,10.87
2023-04-22T04:50:58.992Z,10.91
2023-04-22T04:53:32.601Z,11.00
2023-04-22T04:56:05.602Z,11.07
2023-04-22T04:58:38.557Z,11.16
2023-04-22T05:01:11.862Z,11.33
2023-04-22T05:03:45.195Z,11.52
2023-04-22T05:06:18.271Z,11.71
2023-04-22T05:08:54.557Z,11.94
2023-04-22T05:11:26.072Z,12.14
2023-04-22T05:13:57.969Z,12.32
2023-04-22T05:16:31.693Z,12.50
2023-04-22T05:19:03.829Z,12.70
2023-04-22T05:21:36.936Z,12.90
2023-04-22T05:24:08.805Z,13.13
2023-04-22T05:26:40.705Z,13.34
2023-04-22T05:29:14.590Z,13.48
2023-04-22T05:31:46.170Z,13.59
2023-04-22T05:34:18.078Z,13.69
2023-04-22T05:36:49.957Z,13.82
2023-04-22T05:39:22.033Z,14.03
2023-04-22T05:41:54.880Z,14.25
2023-04-22T05:44:27.268Z,14.45
2023-04-22T05:46:59.305Z,14.59
2023-04-22T05:49:31.318Z,14.63
2023-04-22T05:52:19.939Z,14.75
2023-04-22T05:54:56.271Z,14.89
2023-04-22T05:57:28.033Z,15.03
2023-04-22T06:00:01.919Z,15.20
2023-04-22T06:02:35.832Z,15.33
2023-04-22T06:05:08.543Z,15.50
2023-04-22T06:07:40.953Z,15.68
2023-04-22T06:10:12.798Z,15.83
2023-04-22T06:12:44.682Z,15.94
2023-04-22T06:15:16.342Z,15.99
2023-04-22T06:17:49.645Z,16.02
2023-04-22T06:20:21.829Z,16.13
2023-04-22T06:22:53.516Z,16.20
2023-04-22T06:25:25.063Z,16.18
2023-04-22T06:27:56.742Z,16.10
2023-04-22T06:30:28.549Z,16.16
2023-04-22T06:33:00.462Z,16.33
2023-04-22T06:35:33.036Z,16.44
2023-04-22T06:38:04.703Z,16.46
2023-04-22T06:40:38.042Z,16.57
2023-04-22T06:43:14.084Z,16.60
2023-04-22T06:45:53.505Z,16.50
2023-04-22T06:48:39.453Z,16.49
2023-04-22T06:51:29.419Z,16.54
2023-04-22T06:54:01.459Z,16.62
2023-04-22T06:56:33.650Z,16.64
2023-04-22T06:59:05.599Z,16.68
2023-04-22T07:01:37.800Z,16.65
2023-04-22T07:04:10.183Z,16.63
2023-04-22T07:06:41.849Z,16.65
2023-04-22T07:09:13.754Z,16.75
2023-04-22T07:11:46.843Z,16.74
2023-04-22T07:14:20.206Z,16.62
2023-04-22T07:16:52.183Z,16.53
2023-04-22T07:19:23.749Z,16.46
2023-04-22T07:21:55.591Z,16.47
2023-04-22T07:24:27.357Z,16.56
2023-04-22T07:26:59.625Z,16.66
2023-04-22T07:29:31.869Z,16.74
2023-04-22T07:32:03.866Z,16.75
2023-04-22T07:34:36.394Z,16.75
2023-04-22T07:37:09.647Z,16.77
2023-04-22T07:39:42.188Z,16.80
2023-04-22T07:42:14.080Z,16.77
2023-04-22T07:44:45.741Z,16.75
2023-04-22T07:47:17.290Z,16.77
2023-04-22T07:49:49.449Z,16.86
2023-04-22T07:52:21.166Z,17.01
2023-04-22T07:54:53.127Z,17.10
2023-04-22T07:57:25.405Z,17.17
2023-04-22T07:59:56.880Z,17.26
2023-04-22T08:02:29.125Z,17.32
2023-04-22T08:05:01.269Z,17.39
2023-04-22T08:07:33.831Z,17.55
2023-04-22T08:10:17.710Z,17.83
2023-04-22T08:12:49.670Z,18.13
2023-04-22T08:15:21.258Z,18.39
2023-04-22T08:17:53.696Z,18.75
2023-04-22T08:20:25.959Z,19.10
2023-04-22T08:22:59.670Z,19.54
2023-04-22T08:25:31.610Z,20.00
2023-04-22T08:28:03.396Z,20.38
2023-04-22T08:30:35.157Z,20.64
2023-04-22T08:33:07.196Z,20.86
2023-04-22T08:35:39.026Z,20.94
2023-04-22T08:38:10.563Z,21.05
2023-04-22T08:40:42.572Z,21.13
2023-04-22T08:43:14.205Z,21.21
2023-04-22T08:45:45.986Z,21.37
2023-04-22T08:48:17.827Z,21.37
2023-04-22T08:50:49.612Z,21.47
2023-04-22T08:53:24.611Z,21.75
2023-04-22T08:55:57.625Z,21.91
2023-04-22T08:58:29.800Z,22.15
2023-04-22T09:01:01.665Z,22.25
2023-04-22T09:03:33.584Z,22.16
2023-04-22T09:06:06.251Z,22.19
2023-04-22T09:08:38.934Z,22.30
2023-04-22T09:11:11.772Z,22.45
2023-04-22T09:13:44.070Z,22.71
2023-04-22T09:16:15.943Z,22.88
2023-04-22T09:18:49.365Z,22.89
2023-04-22T09:21:21.408Z,22.74
2023-04-22T09:23:54.172Z,22.68
2023-04-22T09:26:27.201Z,22.47
2023-04-22T09:29:00.867Z,22.35
2023-04-22T09:31:32.685Z,22.30
2023-04-22T09:34:04.561Z,22.42
2023-04-22T09:36:37.828Z,22.50
2023-04-22T09:39:09.993Z,22.63
2023-04-22T09:41:41.611Z,22.72
2023-04-22T09:44:19.445Z,22.79
2023-04-22T09:46:51.276Z,22.83
2023-04-22T09:49:23.795Z,22.75
2023-04-22T09:51:58.413Z,22.63
2023-04-22T09:54:30.015Z,22.51
2023-04-22T09:57:02.328Z,22.50
2023-04-22T09:59:34.104Z,22.59
2023-04-22T10:02:07.245Z,22.51
2023-04-22T10:04:39.109Z,22.46
2023-04-22T10:07:10.770Z,22.60
2023-04-22T10:09:42.338Z,22.72
2023-04-22T10:12:16.511Z,22.89
2023-04-22T10:14:47.677Z,23.03
2023-04-22T10:17:19.380Z,23.14
2023-04-22T10:19:51.499Z,23.17
2023-04-22T10:22:23.163Z,23.34
2023-04-22T10:24:56.085Z,23.64
2023-04-22T10:27:27.699Z,23.94
2023-04-22T10:29:59.248Z,23.98
2023-04-22T10:32:31.969Z,24.06
2023-04-22T10:35:14.340Z,24.09
2023-04-22T10:37:46.408Z,24.16
2023-04-22T10:40:18.664Z,24.29
2023-04-22T10:42:55.571Z,24.36
2023-04-22T10:45:27.262Z,24.41
2023-04-22T10:48:00.616Z,24.47
2023-04-22T10:50:33.384Z,24.61
2023-04-22T10:53:35.886Z,24.69
2023-04-22T10:56:10.973Z,24.62
2023-04-22T10:58:42.864Z,24.49
2023-04-22T11:01:16.255Z,24.50
2023-04-22T11:03:48.091Z,24.66
2023-04-22T11:06:31.980Z,24.79
2023-04-22T11:09:12.879Z,24.74
2023-04-22T11:11:44.599Z,24.37
2023-04-22T11:14:16.276Z,23.71
2023-04-22T11:16:48.697Z,23.15
2023-04-22T11:19:20.383Z,22.74
2023-04-22T11:21:52.317Z,22.41
2023-04-22T11:24:24.050Z,22.28
2023-04-22T11:26:57.266Z,22.13
2023-04-22T11:29:28.857Z,21.91
2023-04-22T11:32:00.900Z,21.69
2023-04-22T11:34:32.930Z,21.62
2023-04-22T11:37:04.550Z,21.67
2023-04-22T11:39:44.401Z,21.76
2023-04-22T11:42:12.805Z,21.99
2023-04-22T11:44:45.460Z,22.22
2023-04-22T11:47:17.211Z,22.43
2023-04-22T11:50:03.796Z,22.64
2023-04-22T11:52:55.956Z,22.98
2023-04-22T11:55:33.095Z,23.28
2023-04-22T11:58:12.096Z,23.43
2023-04-22T12:00:45.698Z,23.56
2023-04-22T12:03:27.640Z,23.62
2023-04-22T12:06:12.406Z,23.58
2023-04-22T12:08:45.083Z,23.52
2023-04-22T12:11:16.965Z,23.49
2023-04-22T12:13:51.310Z,23.51
2023-04-22T12:16:22.982Z,23.47
2023-04-22T12:18:56.328Z,23.44
2023-04-22T12:21:28.605Z,23.42
2023-04-22T12:24:06.934Z,23.37
2023-04-22T12:26:39.095Z,23.27
2023-04-22T12:29:10.797Z,23.13
2023-04-22T12:31:42.809Z,23.09
2023-04-22T12:34:14.533Z,23.08
2023-04-22T12:36:46.185Z,23.15
2023-04-22T12:39:19.068Z,23.06
2023-04-22T12:41:51.207Z,22.91
2023-04-22T12:44:25.157Z,22.74
2023-04-22T12:46:56.516Z,22.39
2023-04-22T12:49:28.051Z,22.18
2023-04-22T12:51:59.719Z,22.06
2023-04-22T12:54:31.374Z,22.05
2023-04-22T12:57:03.813Z,22.14
2023-04-22T12:59:41.830Z,22.14
2023-04-22T13:02:13.830Z,22.11
2023-04-22T13:04:46.098Z,22.18
2023-04-22T13:07:17.973Z,22.14
2023-04-22T13:09:49.844Z,22.10
2023-04-22T13:12:22.049Z,22.07
2023-04-22T13:14:53.620Z,22.03
2023-04-22T13:17:26.304Z,22.05
2023-04-22T13:19:57.899Z,22.08
2023-04-22T13:22:29.589Z,22.04
2023-04-22T13:25:01.292Z,21.96
2023-04-22T13:27:33.202Z,21.88
2023-04-22T13:30:05.379Z,21.78
2023-04-22T13:32:38.782Z,21.72
2023-04-22T13:35:11.091Z,21.67
2023-04-22T13:37:43.156Z,21.57
2023-04-22T13:40:14.824Z,21.46
2023-04-22T13:42:46.613Z,21.32
2023-04-22T13:45:18.165Z,21.14
2023-04-22T13:47:49.864Z,21.01
2023-04-22T13:50:21.737Z,20.89
2023-04-22T13:52:53.389Z,20.81
2023-04-22T13:55:26.769Z,20.71
2023-04-22T13:57:58.383Z,20.58
2023-04-22T14:00:30.130Z,20.43
2023-04-22T14:03:02.483Z,20.31
2023-04-22T14:05:34.314Z,20.27
2023-04-22T14:08:06.519Z,20.22
2023-04-22T14:10:38.117Z,20.13
2023-04-22T14:13:09.728Z,20.05
2023-04-22T14:15:41.456Z,19.94
2023-04-22T14:18:13.291Z,19.81
2023-04-22T14:20:45.490Z,19.75
2023-04-22T14:23:17.364Z,19.67
2023-04-22T14:25:49.458Z,19.60
2023-04-22T14:28:21.285Z,19.55
2023-04-22T14:30:53.223Z,19.52
2023-04-22T14:33:25.820Z,19.46
2023-04-22T14:35:57.670Z,19.39
2023-04-22T14:38:29.884Z,19.31
2023-04-22T14:41:01.748Z,19.23
2023-04-22T14:43:34.180Z,19.18
2023-04-22T14:46:05.907Z,19.11
2023-04-22T14:48:39.360Z,19.03
2023-04-22T14:51:11.101Z,18.95
2023-04-22T14:53:43.866Z,18.89
2023-04-22T14:56:15.464Z,18.82
2023-04-22T14:58:47.018Z,18.76
2023-04-22T15:01:20.362Z,18.68
2023-04-22T15:03:52.245Z,18.59
2023-04-22T15:06:24.484Z,18.50
2023-04-22T15:08:56.397Z,18.41
2023-04-22T15:11:28.120Z,18.30
2023-04-22T15:14:00.873Z,18.22
2023-04-22T15:16:32.730Z,18.13
2023-04-22T15:19:04.389Z,18.03
2023-04-22T15:21:36.218Z,17.95
2023-04-22T15:24:07.991Z,17.86
2023-04-22T15:26:40.701Z,17.80
2023-04-22T15:29:12.312Z,17.74
2023-04-22T15:31:44.820Z,17.68
2023-04-22T15:34:16.579Z,17.63
2023-04-22T15:36:48.138Z,17.61
2023-04-22T15:39:21.104Z,17.59
2023-04-22T15:41:53.194Z,17.56
2023-04-22T15:44:24.709Z,17.53
2023-04-22T15:46:56.491Z,17.45
2023-04-22T15:49:28.072Z,17.39
2023-04-22T15:52:01.147Z,17.37
2023-04-22T15:54:33.416Z,17.34
2023-04-22T15:57:05.282Z,17.31
2023-04-22T15:59:36.842Z,17.29
2023-04-22T16:02:09.238Z,17.26
2023-04-22T16:04:41.578Z,17.27
2023-04-22T16:07:13.341Z,17.26
2023-04-22T16:09:45.059Z,17.22
2023-04-22T16:12:16.865Z,17.20
2023-04-22T16:14:48.867Z,17.18
2023-04-22T16:17:21.092Z,17.12
2023-04-22T16:19:52.842Z,17.07
2023-04-22T16:22:24.473Z,17.04
2023-04-22T16:24:56.133Z,16.99
2023-04-22T16:27:27.901Z,16.97
2023-04-22T16:29:59.662Z,16.95
2023-04-22T16:32:32.113Z,16.91
2023-04-22T16:35:04.552Z,16.88
2023-04-22T16:37:36.843Z,16.82
2023-04-22T16:40:09.193Z,16.76
2023-04-22T16:42:40.941Z,16.71
2023-04-22T16:45:13.262Z,16.63
2023-04-22T16:47:44.865Z,16.58
2023-04-22T16:52:59.360Z,16.53
2023-04-22T16:55:30.975Z,16.52
2023-04-22T16:58:03.975Z,16.48
2023-04-22T17:00:35.539Z,16.45
2023-04-22T17:03:07.599Z,16.42
2023-04-22T17:05:39.725Z,16.38
2023-04-22T17:08:11.615Z,16.35
2023-04-22T17:10:45.103Z,16.34
2023-04-22T17:13:17.544Z,16.31
2023-04-22T17:15:49.222Z,16.26
2023-04-22T17:18:21.079Z,16.23
2023-04-22T17:20:52.786Z,16.19
2023-04-22T17:23:24.312Z,16.17
2023-04-22T17:25:56.151Z,16.12
2023-04-22T17:28:27.632Z,16.05
2023-04-22T17:30:59.766Z,15.99
2023-04-22T17:33:31.747Z,15.95
2023-04-22T17:36:05.170Z,15.90
2023-04-22T17:38:37.137Z,15.85
2023-04-22T17:41:09.074Z,15.81
2023-04-22T17:43:40.827Z,15.77
2023-04-22T17:46:12.581Z,15.73
2023-04-22T17:48:45.741Z,15.70
2023-04-22T17:51:17.486Z,15.68
2023-04-22T17:53:49.637Z,15.67
2023-04-22T17:56:21.238Z,15.67
2023-04-22T17:58:53.032Z,15.65
2023-04-22T18:01:25.805Z,15.65
2023-04-22T18:03:58.067Z,15.62
2023-04-22T18:06:29.851Z,15.61
2023-04-22T18:09:01.553Z,15.60
2023-04-22T18:11:34.303Z,15.58
2023-04-22T18:14:07.992Z,15.56
2023-04-22T18:16:39.603Z,15.56
2023-04-22T18:19:11.359Z,15.54
2023-04-22T18:21:56.666Z,15.51
2023-04-22T18:24:16.392Z,15.49
2023-04-22T18:26:49.303Z,15.48
2023-04-22T18:29:22.151Z,15.47
2023-04-22T18:31:53.766Z,15.47
2023-04-22T18:34:25.365Z,15.45
2023-04-22T18:36:57.364Z,15.44
2023-04-22T18:39:29.299Z,15.43
2023-04-22T18:42:02.362Z,15.40
2023-04-22T18:44:34.148Z,15.38
2023-04-22T18:47:06.220Z,15.35
2023-04-22T18:49:37.981Z,15.36
2023-04-22T18:52:09.880Z,15.36
2023-04-22T18:54:42.054Z,15.37
2023-04-22T18:57:14.584Z,15.36
2023-04-22T18:59:47.645Z,15.37
2023-04-22T19:02:19.320Z,15.35
2023-04-22T19:04:51.064Z,15.34
2023-04-22T19:07:22.850Z,15.32
2023-04-22T19:09:54.399Z,15.29
2023-04-22T19:12:28.651Z,15.24
2023-04-22T19:15:03.592Z,15.23
2023-04-22T19:17:37.156Z,15.19
2023-04-22T19:20:09.384Z,15.18
2023-04-22T19:22:42.174Z,15.17
2023-04-22T19:25:13.961Z,15.14
2023-04-22T19:27:45.958Z,15.12
2023-04-22T19:30:17.947Z,15.11
2023-04-22T19:32:50.765Z,15.09
2023-04-22T19:35:22.446Z,15.07
2023-04-22T19:37:53.981Z,15.04
2023-04-22T19:40:25.656Z,15.02
2023-04-22T19:42:59.021Z,15.01
2023-04-22T19:45:30.652Z,14.98
2023-04-22T19:48:02.530Z,14.96
2023-04-22T19:50:34.543Z,14.95
2023-04-22T19:53:06.488Z,14.94
2023-04-22T19:55:38.735Z,14.92
2023-04-22T19:58:11.351Z,14.90
2023-04-22T20:00:43.737Z,14.86
2023-04-22T20:03:16.380Z,14.84
2023-04-22T20:05:48.472Z,14.82
2023-04-22T20:08:20.591Z,14.79
2023-04-22T20:10:52.201Z,14.79
2023-04-22T20:13:24.428Z,14.78
2023-04-22T20:15:56.527Z,14.76
2023-04-22T20:18:48.384Z,14.74
2023-04-22T20:21:21.763Z,14.74
2023-04-22T20:23:53.393Z,14.73
2023-04-22T20:26:25.316Z,14.73
2023-04-22T20:28:56.911Z,14.72
2023-04-22T20:31:28.613Z,14.71
2023-04-22T20:34:00.271Z,14.72
2023-04-22T20:36:32.864Z,14.73
2023-04-22T20:39:06.437Z,14.73
2023-04-22T20:41:41.052Z,14.75
2023-04-22T20:44:12.994Z,14.76
2023-04-22T20:46:45.082Z,14.76
2023-04-22T20:49:16.957Z,14.75
2023-04-22T20:51:48.532Z,14.75
2023-04-22T20:54:28.466Z,14.76
2023-04-22T20:56:54.287Z,14.76
2023-04-22T20:59:27.709Z,14.75
2023-04-22T21:01:59.974Z,14.76
2023-04-22T21:04:31.866Z,14.76
2023-04-22T21:07:07.774Z,14.74
2023-04-22T21:09:40.476Z,14.75
2023-04-22T21:12:12.620Z,14.74
2023-04-22T21:14:44.916Z,14.72
2023-04-22T21:17:22.466Z,14.72
2023-04-22T21:19:56.214Z,14.71
2023-04-22T21:22:27.848Z,14.67
2023-04-22T21:24:59.575Z,14.63
2023-04-22T21:27:31.467Z,14.60
2023-04-22T21:30:04.437Z,14.56
2023-04-22T21:32:38.723Z,14.53
2023-04-22T21:35:10.467Z,14.49
2023-04-22T21:37:42.505Z,14.43
2023-04-22T21:40:14.123Z,14.39
2023-04-22T21:42:45.926Z,14.36
2023-04-22T21:45:17.738Z,14.34
2023-04-22T21:47:49.400Z,14.30
2023-04-22T21:50:21.673Z,14.26
2023-04-22T21:52:53.429Z,14.23
2023-04-22T21:55:25.066Z,14.19
2023-04-22T21:57:56.659Z,14.17
2023-04-22T22:00:28.603Z,14.14
2023-04-22T22:03:00.236Z,14.12
2023-04-22T22:05:32.220Z,14.06
2023-04-22T22:08:04.121Z,14.03
2023-04-22T22:10:35.879Z,14.01
2023-04-22T22:13:08.170Z,13.98
2023-04-22T22:15:40.584Z,13.95
2023-04-22T22:18:12.397Z,13.91
2023-04-22T22:20:44.576Z,13.87
2023-04-22T22:23:17.177Z,13.86
2023-04-22T22:25:49.762Z,13.84
2023-04-22T22:28:22.322Z,13.82
2023-04-22T22:30:55.538Z,13.79
2023-04-22T22:33:27.524Z,13.77
2023-04-22T22:35:59.102Z,13.76
2023-04-22T22:38:31.829Z,13.73
2023-04-22T22:41:03.645Z,13.71
2023-04-22T22:43:35.450Z,13.69
2023-04-22T22:46:07.152Z,13.66
2023-04-22T22:48:39.888Z,13.65
2023-04-22T22:51:13.079Z,13.64
2023-04-22T22:53:44.938Z,13.63
2023-04-22T22:56:18.127Z,13.60
2023-04-22T22:58:49.633Z,13.60
2023-04-22T23:01:21.385Z,13.56
2023-04-22T23:03:53.094Z,13.56
2023-04-22T23:06:24.897Z,13.54
2023-04-22T23:08:57.175Z,13.53
2023-04-22T23:11:28.882Z,13.51
2023-04-22T23:14:03.047Z,13.51
2023-04-22T23:16:35.174Z,13.49
2023-04-22T23:19:07.766Z,13.48
2023-04-22T23:21:41.137Z,13.48
2023-04-22T23:24:14.335Z,13.46
2023-04-22T23:26:46.482Z,13.45
2023-04-22T23:29:19.511Z,13.46
2023-04-22T23:31:52.210Z,13.44
2023-04-22T23:34:24.238Z,13.43
2023-04-22T23:36:56.048Z,13.42
2023-04-22T23:39:27.792Z,13.39
2023-04-22T23:41:59.437Z,13.37
2023-04-22T23:44:31.171Z,13.34
2023-04-22T23:47:02.900Z,13.32
2023-04-22T23:49:35.145Z,13.31
2023-04-22T23:52:08.126Z,13.31
2023-04-22T23:54:40.743Z,13.29
2023-04-22T23:57:12.796Z,13.26
2023-04-22T23:59:44.900Z,13.24
